BAW922 EGLL-EDDL
Flight info
| Callsign | BAW922 |
|---|---|
| Flight time | 0h 58m |
| Altitude | 33000 |
| Route | BPK Q295 BRAIN M197 REDFA DCT TACHA DCT PAM P62 PISAP PISAP1A |
| Aircraft | A320/M-SDE3FGHIRWY/LB1 |
Departure
| Time | 2026-05-07 20:17 |
|---|---|
| Airport | London Heathrow Airport (EGLL) |
Arrival
| Time | 2026-05-07 21:16 |
|---|---|
| Airport | Düsseldorf Airport (EDDL) |
| Time | Latitude | Longitude | Altitude | Speed | Heading |
|---|---|---|---|---|---|
| 2026-05-07 19:44 | 51.47417 | -0.48955 | 87 ft | 0 kts | 179° |
| 2026-05-07 20:01 | 51.47418 | -0.48955 | 60 ft | 2 kts | 179° |
| 2026-05-07 20:02 | 51.47443 | -0.48956 | 88 ft | 4 kts | 179° |
| 2026-05-07 20:02 | 51.47464 | -0.48956 | 88 ft | 4 kts | 180° |
| 2026-05-07 20:02 | 51.47491 | -0.48954 | 90 ft | 4 kts | 182° |
| 2026-05-07 20:02 | 51.47512 | -0.48954 | 90 ft | 4 kts | 171° |
| 2026-05-07 20:03 | 51.47530 | -0.48965 | 88 ft | 0 kts | 153° |
| 2026-05-07 20:05 | 51.47529 | -0.48964 | 88 ft | 1 kts | 153° |
| 2026-05-07 20:05 | 51.47505 | -0.48935 | 88 ft | 8 kts | 136° |
| 2026-05-07 20:05 | 51.47485 | -0.48839 | 90 ft | 11 kts | 90° |
| 2026-05-07 20:06 | 51.47486 | -0.48706 | 88 ft | 13 kts | 89° |
| 2026-05-07 20:06 | 51.47487 | -0.48544 | 89 ft | 16 kts | 89° |
| 2026-05-07 20:06 | 51.47472 | -0.48373 | 90 ft | 16 kts | 138° |
| 2026-05-07 20:06 | 51.47358 | -0.48361 | 87 ft | 18 kts | 180° |
| 2026-05-07 20:07 | 51.47229 | -0.48359 | 87 ft | 19 kts | 179° |
| 2026-05-07 20:07 | 51.47096 | -0.48358 | 87 ft | 19 kts | 180° |
| 2026-05-07 20:07 | 51.46979 | -0.48358 | 87 ft | 17 kts | 179° |
| 2026-05-07 20:07 | 51.46861 | -0.48356 | 87 ft | 6 kts | 179° |
| 2026-05-07 20:08 | 51.46824 | -0.48355 | 87 ft | 0 kts | 179° |
| 2026-05-07 20:08 | 51.46821 | -0.48355 | 87 ft | 1 kts | 179° |
| 2026-05-07 20:08 | 51.46803 | -0.48355 | 87 ft | 4 kts | 179° |
| 2026-05-07 20:08 | 51.46753 | -0.48369 | 87 ft | 9 kts | 216° |
| 2026-05-07 20:09 | 51.46741 | -0.48494 | 87 ft | 14 kts | 271° |
| 2026-05-07 20:09 | 51.46741 | -0.48654 | 87 ft | 12 kts | 268° |
| 2026-05-07 20:09 | 51.46694 | -0.48753 | 91 ft | 13 kts | 182° |
| 2026-05-07 20:10 | 51.46666 | -0.48751 | 88 ft | 0 kts | 177° |
| 2026-05-07 20:11 | 51.46656 | -0.48750 | 87 ft | 3 kts | 177° |
| 2026-05-07 20:11 | 51.46625 | -0.48753 | 88 ft | 6 kts | 193° |
| 2026-05-07 20:11 | 51.46603 | -0.48767 | 90 ft | 0 kts | 201° |
| 2026-05-07 20:12 | 51.46601 | -0.48768 | 90 ft | 1 kts | 201° |
| 2026-05-07 20:12 | 51.46586 | -0.48777 | 88 ft | 4 kts | 200° |
| 2026-05-07 20:13 | 51.46530 | -0.48788 | 87 ft | 15 kts | 171° |
| 2026-05-07 20:13 | 51.46477 | -0.48639 | 88 ft | 17 kts | 88° |
| 2026-05-07 20:13 | 51.46478 | -0.48593 | 88 ft | 0 kts | 89° |
| 2026-05-07 20:16 | 51.46478 | -0.48592 | 88 ft | 1 kts | 89° |
| 2026-05-07 20:16 | 51.46478 | -0.48305 | 89 ft | 60 kts | 90° |
| 2026-05-07 20:16 | 51.46480 | -0.47292 | 87 ft | 119 kts | 90° |
| 2026-05-07 20:17 | 51.46482 | -0.45775 | 122 ft | 157 kts | 89° |
| 2026-05-07 20:17 | 51.46488 | -0.44013 | 638 ft | 160 kts | 91° |
| 2026-05-07 20:17 | 51.46499 | -0.42188 | 1211 ft | 167 kts | 86° |
| 2026-05-07 20:17 | 51.46844 | -0.40357 | 1612 ft | 185 kts | 59° |
| 2026-05-07 20:18 | 51.47741 | -0.38709 | 1862 ft | 210 kts | 49° |
| 2026-05-07 20:18 | 51.48766 | -0.36856 | 2215 ft | 234 kts | 50° |
| 2026-05-07 20:18 | 51.49876 | -0.34773 | 2740 ft | 253 kts | 51° |
| 2026-05-07 20:18 | 51.51023 | -0.32585 | 3652 ft | 257 kts | 51° |
| 2026-05-07 20:19 | 51.52120 | -0.30317 | 4599 ft | 260 kts | 60° |
| 2026-05-07 20:19 | 51.52800 | -0.27693 | 5455 ft | 264 kts | 71° |
| 2026-05-07 20:19 | 51.53420 | -0.24812 | 5893 ft | 269 kts | 69° |
| 2026-05-07 20:19 | 51.54364 | -0.22222 | 6011 ft | 271 kts | 49° |
| 2026-05-07 20:20 | 51.55803 | -0.20289 | 6035 ft | 271 kts | 29° |
| 2026-05-07 20:20 | 51.57535 | -0.19115 | 6015 ft | 271 kts | 21° |
| 2026-05-07 20:20 | 51.59294 | -0.18007 | 6013 ft | 272 kts | 17° |
| 2026-05-07 20:20 | 51.61106 | -0.17135 | 6017 ft | 272 kts | 16° |
| 2026-05-07 20:21 | 51.62892 | -0.16285 | 6014 ft | 272 kts | 16° |
| 2026-05-07 20:21 | 51.64710 | -0.15427 | 6013 ft | 272 kts | 16° |
| 2026-05-07 20:21 | 51.66521 | -0.14581 | 6016 ft | 272 kts | 16° |
| 2026-05-07 20:21 | 51.68337 | -0.13739 | 6010 ft | 272 kts | 16° |
| 2026-05-07 20:22 | 51.70158 | -0.12899 | 6020 ft | 272 kts | 16° |
| 2026-05-07 20:22 | 51.71981 | -0.12021 | 6510 ft | 275 kts | 21° |
| 2026-05-07 20:22 | 51.73637 | -0.10455 | 7352 ft | 280 kts | 41° |
| 2026-05-07 20:22 | 51.74862 | -0.08002 | 8162 ft | 285 kts | 62° |
| 2026-05-07 20:23 | 51.75478 | -0.04952 | 8952 ft | 289 kts | 82° |
| 2026-05-07 20:23 | 51.75741 | -0.01707 | 9762 ft | 294 kts | 83° |
| 2026-05-07 20:23 | 51.76009 | 0.01607 | 10352 ft | 306 kts | 84° |
| 2026-05-07 20:23 | 51.76294 | 0.05149 | 10568 ft | 329 kts | 84° |
| 2026-05-07 20:24 | 51.76599 | 0.08906 | 10971 ft | 343 kts | 84° |
| 2026-05-07 20:24 | 51.76910 | 0.12741 | 11619 ft | 347 kts | 84° |
| 2026-05-07 20:24 | 51.77225 | 0.16624 | 12335 ft | 350 kts | 84° |
| 2026-05-07 20:24 | 51.77542 | 0.20512 | 13032 ft | 354 kts | 84° |
| 2026-05-07 20:25 | 51.77867 | 0.24470 | 13739 ft | 357 kts | 84° |
| 2026-05-07 20:25 | 51.78196 | 0.28469 | 14376 ft | 361 kts | 84° |
| 2026-05-07 20:25 | 51.78527 | 0.32504 | 14887 ft | 365 kts | 84° |
| 2026-05-07 20:25 | 51.78857 | 0.36586 | 15045 ft | 366 kts | 84° |
| 2026-05-07 20:26 | 51.79180 | 0.40615 | 15082 ft | 366 kts | 84° |
| 2026-05-07 20:26 | 51.79511 | 0.44757 | 15222 ft | 369 kts | 84° |
| 2026-05-07 20:26 | 51.79839 | 0.48877 | 15872 ft | 371 kts | 84° |
| 2026-05-07 20:26 | 51.80167 | 0.53029 | 16476 ft | 374 kts | 84° |
| 2026-05-07 20:27 | 51.80492 | 0.57226 | 17067 ft | 378 kts | 84° |
| 2026-05-07 20:27 | 51.80813 | 0.61406 | 17659 ft | 381 kts | 84° |
| 2026-05-07 20:27 | 51.81188 | 0.65662 | 18286 ft | 385 kts | 79° |
| 2026-05-07 20:27 | 51.81829 | 0.69893 | 18821 ft | 389 kts | 77° |
| 2026-05-07 20:28 | 51.82487 | 0.74153 | 19366 ft | 392 kts | 77° |
| 2026-05-07 20:28 | 51.83148 | 0.78458 | 19920 ft | 396 kts | 77° |
| 2026-05-07 20:28 | 51.83819 | 0.82791 | 20472 ft | 399 kts | 76° |
| 2026-05-07 20:28 | 51.84547 | 0.87100 | 21001 ft | 403 kts | 75° |
| 2026-05-07 20:29 | 51.85337 | 0.91429 | 21520 ft | 407 kts | 73° |
| 2026-05-07 20:29 | 51.86169 | 0.95818 | 22034 ft | 410 kts | 73° |
| 2026-05-07 20:29 | 51.87011 | 1.00246 | 22540 ft | 413 kts | 73° |
| 2026-05-07 20:29 | 51.87841 | 1.04661 | 23034 ft | 417 kts | 73° |
| 2026-05-07 20:30 | 51.88674 | 1.09172 | 23524 ft | 420 kts | 73° |
| 2026-05-07 20:30 | 51.89502 | 1.13741 | 23951 ft | 424 kts | 74° |
| 2026-05-07 20:30 | 51.90323 | 1.18333 | 24355 ft | 427 kts | 74° |
| 2026-05-07 20:30 | 51.91149 | 1.22967 | 24755 ft | 429 kts | 74° |
| 2026-05-07 20:31 | 51.91979 | 1.27624 | 25153 ft | 432 kts | 74° |
| 2026-05-07 20:31 | 51.92817 | 1.32323 | 25542 ft | 435 kts | 74° |
| 2026-05-07 20:31 | 51.93658 | 1.37048 | 25922 ft | 438 kts | 74° |
| 2026-05-07 20:31 | 51.94502 | 1.41796 | 26297 ft | 440 kts | 74° |
| 2026-05-07 20:32 | 51.95350 | 1.46579 | 26657 ft | 443 kts | 74° |
| 2026-05-07 20:32 | 51.96200 | 1.51394 | 27020 ft | 445 kts | 74° |
| 2026-05-07 20:32 | 51.97052 | 1.56251 | 27374 ft | 448 kts | 74° |
| 2026-05-07 20:32 | 51.97903 | 1.61121 | 27734 ft | 451 kts | 74° |
| 2026-05-07 20:33 | 51.98760 | 1.66030 | 28095 ft | 453 kts | 74° |
| 2026-05-07 20:33 | 51.99612 | 1.70965 | 28448 ft | 456 kts | 75° |
| 2026-05-07 20:33 | 52.00427 | 1.75945 | 28793 ft | 458 kts | 75° |
| 2026-05-07 20:33 | 52.01178 | 1.80760 | 29116 ft | 461 kts | 76° |
| 2026-05-07 20:34 | 52.01943 | 1.85819 | 29460 ft | 463 kts | 76° |
| 2026-05-07 20:34 | 52.02705 | 1.90925 | 29792 ft | 466 kts | 76° |
| 2026-05-07 20:34 | 52.03472 | 1.96046 | 30130 ft | 468 kts | 76° |
| 2026-05-07 20:34 | 52.04249 | 2.01180 | 30463 ft | 469 kts | 76° |
| 2026-05-07 20:35 | 52.05037 | 2.06324 | 30887 ft | 467 kts | 76° |
| 2026-05-07 20:35 | 52.05825 | 2.11442 | 31301 ft | 467 kts | 76° |
| 2026-05-07 20:35 | 52.06612 | 2.16558 | 31711 ft | 466 kts | 76° |
| 2026-05-07 20:35 | 52.07352 | 2.21394 | 32090 ft | 465 kts | 76° |
| 2026-05-07 20:36 | 52.08126 | 2.26491 | 32493 ft | 465 kts | 76° |
| 2026-05-07 20:36 | 52.08898 | 2.31600 | 32898 ft | 464 kts | 76° |
| 2026-05-07 20:36 | 52.09669 | 2.36713 | 33086 ft | 465 kts | 76° |
| 2026-05-07 20:37 | 52.11175 | 2.46811 | 33106 ft | 461 kts | 77° |
| 2026-05-07 20:37 | 52.12845 | 2.56863 | 33111 ft | 460 kts | 73° |
| 2026-05-07 20:38 | 52.14800 | 2.66765 | 33111 ft | 460 kts | 72° |
| 2026-05-07 20:38 | 52.16777 | 2.76670 | 33111 ft | 460 kts | 72° |
| 2026-05-07 20:39 | 52.18663 | 2.86563 | 33115 ft | 460 kts | 73° |
| 2026-05-07 20:39 | 52.20519 | 2.96549 | 33109 ft | 460 kts | 73° |
| 2026-05-07 20:40 | 52.22364 | 3.06524 | 33117 ft | 460 kts | 73° |
| 2026-05-07 20:40 | 52.24208 | 3.16497 | 33133 ft | 459 kts | 73° |
| 2026-05-07 20:41 | 52.25731 | 3.26610 | 33134 ft | 457 kts | 84° |
| 2026-05-07 20:41 | 52.26247 | 3.36866 | 33132 ft | 456 kts | 86° |
| 2026-05-07 20:42 | 52.26750 | 3.47182 | 33117 ft | 456 kts | 86° |
| 2026-05-07 20:42 | 52.27249 | 3.57491 | 33126 ft | 455 kts | 86° |
| 2026-05-07 20:43 | 52.27738 | 3.67770 | 33126 ft | 455 kts | 86° |
| 2026-05-07 20:43 | 52.28207 | 3.77866 | 33125 ft | 455 kts | 86° |
| 2026-05-07 20:44 | 52.28674 | 3.88159 | 33124 ft | 454 kts | 86° |
| 2026-05-07 20:44 | 52.29058 | 3.98449 | 33112 ft | 453 kts | 94° |
| 2026-05-07 20:45 | 52.28328 | 4.08639 | 33120 ft | 451 kts | 99° |
| 2026-05-07 20:45 | 52.27528 | 4.18733 | 33110 ft | 451 kts | 99° |
| 2026-05-07 20:46 | 52.26711 | 4.28864 | 33109 ft | 451 kts | 99° |
| 2026-05-07 20:46 | 52.25878 | 4.39019 | 33099 ft | 451 kts | 99° |
| 2026-05-07 20:47 | 52.25044 | 4.49099 | 33100 ft | 451 kts | 99° |
| 2026-05-07 20:47 | 52.24195 | 4.59218 | 33094 ft | 451 kts | 99° |
| 2026-05-07 20:48 | 52.23343 | 4.69368 | 33119 ft | 451 kts | 99° |
| 2026-05-07 20:48 | 52.22485 | 4.79500 | 33118 ft | 451 kts | 99° |
| 2026-05-07 20:49 | 52.21608 | 4.89633 | 33112 ft | 451 kts | 99° |
| 2026-05-07 20:49 | 52.20724 | 4.99750 | 33106 ft | 451 kts | 99° |
| 2026-05-07 20:50 | 52.19833 | 5.09868 | 33107 ft | 450 kts | 99° |
| 2026-05-07 20:50 | 52.18941 | 5.19972 | 33101 ft | 450 kts | 99° |
| 2026-05-07 20:51 | 52.18040 | 5.30054 | 33106 ft | 450 kts | 100° |
| 2026-05-07 20:51 | 52.17121 | 5.40132 | 32626 ft | 451 kts | 100° |
| 2026-05-07 20:51 | 52.16658 | 5.45197 | 31980 ft | 450 kts | 100° |
| 2026-05-07 20:52 | 52.16203 | 5.50145 | 31449 ft | 446 kts | 100° |
| 2026-05-07 20:52 | 52.15745 | 5.55126 | 30917 ft | 443 kts | 100° |
| 2026-05-07 20:52 | 52.15288 | 5.60080 | 30372 ft | 440 kts | 100° |
| 2026-05-07 20:52 | 52.14832 | 5.64985 | 29787 ft | 437 kts | 100° |
| 2026-05-07 20:53 | 52.14379 | 5.69844 | 29275 ft | 432 kts | 100° |
| 2026-05-07 20:53 | 52.13913 | 5.74640 | 28756 ft | 427 kts | 103° |
| 2026-05-07 20:53 | 52.13119 | 5.79213 | 28248 ft | 421 kts | 112° |
| 2026-05-07 20:53 | 52.11927 | 5.83522 | 27770 ft | 415 kts | 117° |
| 2026-05-07 20:54 | 52.10678 | 5.87734 | 27282 ft | 412 kts | 117° |
| 2026-05-07 20:54 | 52.09445 | 5.91916 | 26824 ft | 409 kts | 117° |
| 2026-05-07 20:54 | 52.08222 | 5.96073 | 26364 ft | 406 kts | 120° |
| 2026-05-07 20:54 | 52.07013 | 6.00201 | 25914 ft | 403 kts | 117° |
| 2026-05-07 20:55 | 52.05801 | 6.04303 | 25489 ft | 401 kts | 117° |
| 2026-05-07 20:55 | 52.05003 | 6.06996 | 25196 ft | 400 kts | 117° |
| 2026-05-07 20:55 | 52.03404 | 6.12380 | 24634 ft | 398 kts | 117° |
| 2026-05-07 20:55 | 52.02199 | 6.16414 | 24196 ft | 397 kts | 117° |
| 2026-05-07 20:56 | 52.00995 | 6.20438 | 23755 ft | 396 kts | 117° |
| 2026-05-07 20:56 | 51.99798 | 6.24422 | 23276 ft | 395 kts | 117° |
| 2026-05-07 20:56 | 51.98599 | 6.28406 | 22833 ft | 392 kts | 117° |
| 2026-05-07 20:56 | 51.97409 | 6.32363 | 22390 ft | 388 kts | 117° |
| 2026-05-07 20:57 | 51.96622 | 6.34972 | 22092 ft | 387 kts | 117° |
| 2026-05-07 20:57 | 51.95452 | 6.38842 | 21629 ft | 384 kts | 117° |
| 2026-05-07 20:57 | 51.94281 | 6.42713 | 21170 ft | 381 kts | 117° |
| 2026-05-07 20:57 | 51.93115 | 6.46559 | 20701 ft | 379 kts | 117° |
| 2026-05-07 20:58 | 51.91970 | 6.50336 | 20243 ft | 376 kts | 117° |
| 2026-05-07 20:58 | 51.90700 | 6.54013 | 19763 ft | 373 kts | 127° |
| 2026-05-07 20:58 | 51.89012 | 6.57146 | 19296 ft | 368 kts | 139° |
| 2026-05-07 20:58 | 51.86962 | 6.59590 | 18825 ft | 364 kts | 152° |
| 2026-05-07 20:59 | 51.84686 | 6.61243 | 18352 ft | 360 kts | 163° |
| 2026-05-07 20:59 | 51.82306 | 6.62474 | 17855 ft | 357 kts | 163° |
| 2026-05-07 20:59 | 51.79963 | 6.63679 | 17386 ft | 353 kts | 166° |
| 2026-05-07 20:59 | 51.77579 | 6.64421 | 16925 ft | 349 kts | 173° |
| 2026-05-07 21:00 | 51.75211 | 6.64955 | 16464 ft | 337 kts | 173° |
| 2026-05-07 21:00 | 51.72920 | 6.65472 | 16037 ft | 335 kts | 173° |
| 2026-05-07 21:00 | 51.70615 | 6.65990 | 15593 ft | 333 kts | 173° |
| 2026-05-07 21:00 | 51.68329 | 6.66502 | 15155 ft | 331 kts | 173° |
| 2026-05-07 21:01 | 51.66047 | 6.67010 | 14717 ft | 330 kts | 173° |
| 2026-05-07 21:01 | 51.63779 | 6.67515 | 14278 ft | 329 kts | 173° |
| 2026-05-07 21:01 | 51.61512 | 6.68022 | 13823 ft | 328 kts | 173° |
| 2026-05-07 21:01 | 51.59258 | 6.68524 | 13362 ft | 326 kts | 173° |
| 2026-05-07 21:02 | 51.57016 | 6.69022 | 12931 ft | 324 kts | 173° |
| 2026-05-07 21:02 | 51.54792 | 6.69515 | 12504 ft | 322 kts | 173° |
| 2026-05-07 21:02 | 51.52582 | 6.70007 | 12076 ft | 320 kts | 173° |
| 2026-05-07 21:02 | 51.50381 | 6.70497 | 11630 ft | 319 kts | 173° |
| 2026-05-07 21:03 | 51.48211 | 6.70978 | 11200 ft | 318 kts | 173° |
| 2026-05-07 21:03 | 51.45992 | 6.71471 | 10762 ft | 317 kts | 173° |
| 2026-05-07 21:03 | 51.43852 | 6.71945 | 10356 ft | 316 kts | 173° |
| 2026-05-07 21:03 | 51.41710 | 6.72421 | 10223 ft | 305 kts | 173° |
| 2026-05-07 21:04 | 51.39643 | 6.72875 | 10078 ft | 296 kts | 173° |
| 2026-05-07 21:04 | 51.37622 | 6.73314 | 9710 ft | 290 kts | 173° |
| 2026-05-07 21:04 | 51.35639 | 6.73745 | 9186 ft | 286 kts | 173° |
| 2026-05-07 21:04 | 51.33673 | 6.74176 | 8651 ft | 284 kts | 173° |
| 2026-05-07 21:05 | 51.31721 | 6.74545 | 8147 ft | 281 kts | 180° |
| 2026-05-07 21:05 | 51.29804 | 6.73980 | 7622 ft | 284 kts | 204° |
| 2026-05-07 21:05 | 51.28196 | 6.72193 | 7265 ft | 281 kts | 227° |
| 2026-05-07 21:05 | 51.27171 | 6.69557 | 6716 ft | 278 kts | 251° |
| 2026-05-07 21:06 | 51.26581 | 6.66623 | 6134 ft | 279 kts | 253° |
| 2026-05-07 21:06 | 51.26007 | 6.63693 | 5867 ft | 274 kts | 253° |
| 2026-05-07 21:06 | 51.25436 | 6.60794 | 5511 ft | 274 kts | 253° |
| 2026-05-07 21:06 | 51.24861 | 6.57901 | 5123 ft | 271 kts | 253° |
| 2026-05-07 21:07 | 51.24297 | 6.55071 | 4439 ft | 272 kts | 253° |
| 2026-05-07 21:07 | 51.23725 | 6.52208 | 4084 ft | 260 kts | 252° |
| 2026-05-07 21:07 | 51.23202 | 6.49589 | 3944 ft | 241 kts | 252° |
| 2026-05-07 21:07 | 51.22671 | 6.47138 | 3842 ft | 224 kts | 251° |
| 2026-05-07 21:08 | 51.22173 | 6.44839 | 3740 ft | 221 kts | 251° |
| 2026-05-07 21:08 | 51.21676 | 6.42522 | 3640 ft | 220 kts | 251° |
| 2026-05-07 21:08 | 51.21060 | 6.40317 | 3542 ft | 218 kts | 232° |
| 2026-05-07 21:08 | 51.19937 | 6.38758 | 3435 ft | 211 kts | 201° |
| 2026-05-07 21:09 | 51.18544 | 6.38401 | 3360 ft | 197 kts | 177° |
| 2026-05-07 21:09 | 51.17284 | 6.38900 | 3260 ft | 182 kts | 144° |
| 2026-05-07 21:09 | 51.16591 | 6.40441 | 3143 ft | 169 kts | 100° |
| 2026-05-07 21:09 | 51.16546 | 6.42276 | 3063 ft | 165 kts | 83° |
| 2026-05-07 21:10 | 51.16776 | 6.44059 | 3009 ft | 164 kts | 75° |
| 2026-05-07 21:10 | 51.17084 | 6.45807 | 3012 ft | 164 kts | 73° |
| 2026-05-07 21:10 | 51.17405 | 6.47551 | 3010 ft | 164 kts | 73° |
| 2026-05-07 21:10 | 51.17728 | 6.49293 | 3011 ft | 164 kts | 73° |
| 2026-05-07 21:11 | 51.18053 | 6.51038 | 3011 ft | 164 kts | 73° |
| 2026-05-07 21:11 | 51.18378 | 6.52782 | 3012 ft | 164 kts | 73° |
| 2026-05-07 21:11 | 51.19033 | 6.56262 | 2994 ft | 164 kts | 69° |
| 2026-05-07 21:12 | 51.19645 | 6.57787 | 2869 ft | 164 kts | 53° |
| 2026-05-07 21:12 | 51.20329 | 6.59236 | 2685 ft | 163 kts | 53° |
| 2026-05-07 21:12 | 51.21011 | 6.60668 | 2481 ft | 162 kts | 53° |
| 2026-05-07 21:12 | 51.21685 | 6.62077 | 2271 ft | 161 kts | 53° |
| 2026-05-07 21:13 | 51.22364 | 6.63496 | 2051 ft | 161 kts | 54° |
| 2026-05-07 21:13 | 51.23025 | 6.64875 | 1853 ft | 148 kts | 54° |
| 2026-05-07 21:13 | 51.23633 | 6.66144 | 1644 ft | 140 kts | 54° |
| 2026-05-07 21:13 | 51.24218 | 6.67366 | 1449 ft | 137 kts | 53° |
| 2026-05-07 21:14 | 51.24797 | 6.68578 | 1265 ft | 137 kts | 53° |
| 2026-05-07 21:14 | 51.25384 | 6.69769 | 1071 ft | 136 kts | 53° |
| 2026-05-07 21:14 | 51.25955 | 6.70963 | 869 ft | 135 kts | 55° |
| 2026-05-07 21:14 | 51.26513 | 6.72157 | 693 ft | 133 kts | 54° |
| 2026-05-07 21:15 | 51.27074 | 6.73332 | 546 ft | 133 kts | 53° |
| 2026-05-07 21:15 | 51.27629 | 6.74504 | 361 ft | 133 kts | 53° |
| 2026-05-07 21:15 | 51.28169 | 6.75637 | 199 ft | 131 kts | 53° |
| 2026-05-07 21:15 | 51.28685 | 6.76719 | 132 ft | 103 kts | 52° |
| 2026-05-07 21:16 | 51.28943 | 6.77258 | 127 ft | 36 kts | 52° |
| 2026-05-07 21:16 | 51.29018 | 6.77520 | 130 ft | 22 kts | 107° |
| 2026-05-07 21:16 | 51.28939 | 6.77647 | 129 ft | 13 kts | 154° |
| 2026-05-07 21:16 | 51.28867 | 6.77571 | 125 ft | 15 kts | 233° |
| 2026-05-07 21:17 | 51.28801 | 6.77429 | 128 ft | 17 kts | 233° |
| 2026-05-07 21:17 | 51.28721 | 6.77264 | 127 ft | 20 kts | 232° |
| 2026-05-07 21:17 | 51.28631 | 6.77073 | 126 ft | 23 kts | 233° |
| 2026-05-07 21:17 | 51.28528 | 6.76854 | 128 ft | 27 kts | 233° |
| 2026-05-07 21:18 | 51.28423 | 6.76634 | 122 ft | 16 kts | 232° |
| 2026-05-07 21:18 | 51.28349 | 6.76483 | 123 ft | 19 kts | 233° |
| 2026-05-07 21:18 | 51.28267 | 6.76309 | 126 ft | 21 kts | 233° |
| 2026-05-07 21:18 | 51.28177 | 6.76121 | 129 ft | 19 kts | 231° |
| 2026-05-07 21:19 | 51.28093 | 6.76041 | 127 ft | 15 kts | 168° |
| 2026-05-07 21:19 | 51.27982 | 6.76047 | 126 ft | 17 kts | 179° |
| 2026-05-07 21:19 | 51.27851 | 6.76048 | 127 ft | 20 kts | 181° |
| 2026-05-07 21:19 | 51.27714 | 6.76041 | 130 ft | 17 kts | 183° |
| 2026-05-07 21:20 | 51.27604 | 6.76056 | 126 ft | 17 kts | 154° |
| 2026-05-07 21:20 | 51.27514 | 6.76177 | 130 ft | 18 kts | 99° |
| 2026-05-07 21:20 | 51.27552 | 6.76358 | 129 ft | 11 kts | 69° |
| 2026-05-07 21:20 | 51.27600 | 6.76390 | 127 ft | 10 kts | 328° |
| 2026-05-07 21:21 | 51.27610 | 6.76381 | 129 ft | 2 kts | 335° |
| 2026-05-07 21:21 | 51.27630 | 6.76370 | 127 ft | 2 kts | 341° |